createdAt,value
2022-12-03T00:02:14.106Z,2.10
2022-12-03T00:04:40.827Z,2.10
2022-12-03T00:07:07.448Z,2.10
2022-12-03T00:09:34.099Z,2.10
2022-12-03T00:12:00.834Z,2.10
2022-12-03T00:14:27.564Z,2.00
2022-12-03T00:16:54.287Z,2.00
2022-12-03T00:19:20.981Z,2.00
2022-12-03T00:21:47.626Z,2.00
2022-12-03T00:24:14.293Z,2.00
2022-12-03T00:26:40.912Z,2.00
2022-12-03T00:29:07.616Z,2.00
2022-12-03T00:31:34.349Z,1.90
2022-12-03T00:34:01.038Z,1.90
2022-12-03T00:36:27.678Z,1.90
2022-12-03T00:38:54.356Z,1.90
2022-12-03T00:41:21.065Z,2.00
2022-12-03T00:43:47.689Z,2.00
2022-12-03T00:46:19.678Z,2.00
2022-12-03T00:48:47.893Z,1.90
2022-12-03T00:51:14.540Z,1.70
2022-12-03T00:53:41.244Z,1.70
2022-12-03T00:56:08.399Z,1.70
2022-12-03T00:58:35.333Z,1.50
2022-12-03T01:01:02.261Z,1.50
2022-12-03T01:03:28.954Z,1.50
2022-12-03T01:05:55.641Z,1.40
2022-12-03T01:08:22.320Z,1.30
2022-12-03T01:10:48.970Z,1.30
2022-12-03T01:13:15.617Z,1.30
2022-12-03T01:15:42.351Z,1.20
2022-12-03T01:18:09.013Z,1.20
2022-12-03T01:20:36.423Z,1.20
2022-12-03T01:23:03.137Z,1.00
2022-12-03T01:25:29.869Z,1.10
2022-12-03T01:27:56.507Z,1.10
2022-12-03T01:30:23.136Z,1.10
2022-12-03T01:32:49.858Z,1.10
2022-12-03T01:35:16.630Z,1.00
2022-12-03T01:37:43.290Z,1.00
2022-12-03T01:40:15.252Z,1.00
2022-12-03T01:42:42.739Z,1.00
2022-12-03T01:45:21.980Z,1.00
2022-12-03T01:47:48.895Z,1.10
2022-12-03T01:50:25.573Z,1.00
2022-12-03T01:53:01.520Z,1.00
2022-12-03T01:55:29.052Z,1.10
2022-12-03T01:58:00.948Z,1.00
2022-12-03T02:00:29.317Z,1.10
2022-12-03T02:03:10.756Z,1.10
2022-12-03T02:05:38.308Z,1.10
2022-12-03T02:08:27.175Z,1.10
2022-12-03T02:10:53.937Z,1.10
2022-12-03T02:13:21.079Z,1.10
2022-12-03T02:15:48.009Z,1.10
2022-12-03T02:18:14.792Z,1.10
2022-12-03T02:21:05.357Z,1.10
2022-12-03T02:23:43.713Z,1.10
2022-12-03T02:26:10.552Z,1.20
2022-12-03T02:28:38.380Z,1.20
2022-12-03T02:31:05.501Z,1.10
2022-12-03T02:33:32.570Z,1.10
2022-12-03T02:36:03.563Z,1.10
2022-12-03T02:38:32.267Z,1.10
2022-12-03T02:41:05.692Z,1.00
2022-12-03T02:43:32.560Z,1.10
2022-12-03T02:46:01.860Z,1.10
2022-12-03T02:48:37.003Z,1.10
2022-12-03T02:51:09.395Z,1.00
2022-12-03T02:53:48.664Z,1.10
2022-12-03T02:56:19.160Z,1.10
2022-12-03T02:58:48.355Z,1.10
2022-12-03T03:01:18.101Z,1.10
2022-12-03T03:03:46.348Z,1.10
2022-12-03T03:06:14.402Z,1.00
2022-12-03T03:08:42.243Z,1.00
2022-12-03T03:11:08.909Z,1.00
2022-12-03T03:13:36.559Z,1.00
2022-12-03T03:16:04.825Z,1.00
2022-12-03T03:18:32.991Z,1.00
2022-12-03T03:21:00.029Z,1.00
2022-12-03T03:23:26.807Z,1.00
2022-12-03T03:26:08.520Z,1.00
2022-12-03T03:28:38.970Z,1.00
2022-12-03T03:31:08.163Z,1.00
2022-12-03T03:33:36.218Z,1.00
2022-12-03T03:36:03.299Z,1.00
2022-12-03T03:38:31.011Z,1.00
2022-12-03T03:40:59.215Z,1.00
2022-12-03T03:43:26.059Z,1.10
2022-12-03T03:45:53.744Z,1.00
2022-12-03T03:48:21.519Z,1.00
2022-12-03T03:50:49.701Z,1.00
2022-12-03T03:53:17.544Z,1.00
2022-12-03T03:55:44.471Z,1.00
2022-12-03T03:58:11.183Z,1.00
2022-12-03T04:00:38.028Z,1.00
2022-12-03T04:03:06.736Z,1.00
2022-12-03T04:05:33.532Z,0.90
2022-12-03T04:08:00.275Z,1.00
2022-12-03T04:10:45.485Z,0.90
2022-12-03T04:13:12.131Z,0.90
2022-12-03T04:15:38.819Z,0.90
2022-12-03T04:18:24.296Z,1.00
2022-12-03T04:20:50.974Z,1.00
2022-12-03T04:23:17.620Z,0.90
2022-12-03T04:26:03.101Z,1.00
2022-12-03T04:28:48.528Z,1.00
2022-12-03T04:31:34.020Z,1.00
2022-12-03T04:34:19.497Z,0.90
2022-12-03T04:36:47.073Z,0.80
2022-12-03T04:39:13.853Z,0.80
2022-12-03T04:41:40.638Z,0.90
2022-12-03T04:44:26.339Z,0.90
2022-12-03T04:46:53.057Z,0.90
2022-12-03T04:49:19.744Z,0.80
2022-12-03T04:51:46.395Z,0.80
2022-12-03T04:54:13.126Z,0.80
2022-12-03T04:56:39.938Z,0.70
2022-12-03T04:59:10.061Z,0.70
2022-12-03T05:01:39.475Z,0.70
2022-12-03T05:04:06.579Z,0.70
2022-12-03T05:06:33.220Z,0.60
2022-12-03T05:08:59.902Z,0.50
2022-12-03T05:11:26.607Z,0.50
2022-12-03T05:13:53.769Z,0.50
2022-12-03T05:16:20.503Z,0.50
2022-12-03T05:18:47.176Z,0.50
2022-12-03T05:21:14.042Z,0.50
2022-12-03T05:23:42.264Z,0.50
2022-12-03T05:26:08.977Z,0.50
2022-12-03T05:28:35.676Z,0.50
2022-12-03T05:31:02.595Z,0.50
2022-12-03T05:33:29.304Z,0.50
2022-12-03T05:35:55.958Z,0.50
2022-12-03T05:38:22.633Z,0.40
2022-12-03T05:40:49.293Z,0.40
2022-12-03T05:43:18.802Z,0.40
2022-12-03T05:45:45.741Z,0.40
2022-12-03T05:48:14.755Z,0.30
2022-12-03T05:50:44.364Z,0.30
2022-12-03T05:53:11.857Z,0.30
2022-12-03T05:55:38.687Z,0.30
2022-12-03T05:58:05.770Z,0.20
2022-12-03T06:00:42.353Z,0.20
2022-12-03T06:03:10.548Z,0.20
2022-12-03T06:05:37.468Z,0.20
2022-12-03T06:08:04.622Z,0.20
2022-12-03T06:10:31.371Z,0.20
2022-12-03T06:12:58.266Z,0.10
2022-12-03T06:15:24.931Z,0.10
2022-12-03T06:17:52.393Z,0.10
2022-12-03T06:20:20.356Z,0.10
2022-12-03T06:22:47.530Z,0.00
2022-12-03T06:25:15.369Z,0.00
2022-12-03T06:27:42.054Z,0.00
2022-12-03T06:30:12.902Z,0.00
2022-12-03T06:32:39.686Z,0.00
2022-12-03T06:35:06.728Z,0.00
2022-12-03T06:37:33.389Z,0.00
2022-12-03T06:40:00.042Z,0.00
2022-12-03T06:42:26.695Z,-0.10
2022-12-03T06:44:53.573Z,-0.10
2022-12-03T06:47:20.468Z,-0.20
2022-12-03T06:49:47.100Z,-0.10
2022-12-03T06:52:13.823Z,-0.10
2022-12-03T06:54:40.542Z,-0.10
2022-12-03T06:57:07.190Z,0.00
2022-12-03T06:59:35.731Z,-0.10
2022-12-03T07:02:02.522Z,-0.10
2022-12-03T07:04:29.218Z,-0.10
2022-12-03T07:06:55.931Z,-0.10
2022-12-03T07:09:22.647Z,-0.10
2022-12-03T07:11:49.297Z,0.00
2022-12-03T07:14:15.986Z,-0.10
2022-12-03T07:16:43.700Z,-0.10
2022-12-03T07:19:11.027Z,0.00
2022-12-03T07:21:38.052Z,0.00
2022-12-03T07:24:05.652Z,0.00
2022-12-03T07:26:32.679Z,0.00
2022-12-03T07:28:59.483Z,0.00
2022-12-03T07:31:26.272Z,0.00
2022-12-03T07:33:53.115Z,0.00
2022-12-03T07:36:20.415Z,0.00
2022-12-03T07:38:47.061Z,-0.10
2022-12-03T07:41:13.715Z,-0.10
2022-12-03T07:43:40.332Z,0.00
2022-12-03T07:46:07.031Z,-0.10
2022-12-03T07:48:33.769Z,-0.10
2022-12-03T07:51:00.485Z,-0.10
2022-12-03T07:53:27.155Z,-0.10
2022-12-03T07:55:53.799Z,-0.10
2022-12-03T07:58:20.492Z,0.00
2022-12-03T08:00:47.273Z,0.00
2022-12-03T08:03:14.090Z,0.00
2022-12-03T08:05:40.738Z,0.00
2022-12-03T08:08:07.514Z,0.00
2022-12-03T08:10:34.242Z,0.10
2022-12-03T08:13:02.382Z,0.00
2022-12-03T08:15:35.245Z,-0.10
2022-12-03T08:18:16.589Z,-0.10
2022-12-03T08:20:45.009Z,0.00
2022-12-03T08:23:23.281Z,0.00
2022-12-03T08:25:51.450Z,0.00
2022-12-03T08:28:19.646Z,0.10
2022-12-03T08:31:12.088Z,0.10
2022-12-03T08:33:40.216Z,0.10
2022-12-03T08:36:24.796Z,0.00
2022-12-03T08:38:57.368Z,0.10
2022-12-03T08:41:43.080Z,0.00
2022-12-03T08:44:28.933Z,0.10
2022-12-03T08:47:07.168Z,0.10
2022-12-03T08:49:33.847Z,0.10
2022-12-03T08:52:06.594Z,0.00
2022-12-03T08:54:33.228Z,0.00
2022-12-03T08:57:06.604Z,0.00
2022-12-03T08:59:33.256Z,0.00
2022-12-03T09:02:00.145Z,0.00
2022-12-03T09:04:30.250Z,0.00
2022-12-03T09:06:57.541Z,0.00
2022-12-03T09:09:25.037Z,0.10
2022-12-03T09:11:52.479Z,0.10
2022-12-03T09:14:21.248Z,0.10
2022-12-03T09:16:49.001Z,0.10
2022-12-03T09:19:16.006Z,0.10
2022-12-03T09:21:42.669Z,0.20
2022-12-03T09:24:09.344Z,0.20
2022-12-03T09:26:36.222Z,0.20
2022-12-03T09:29:06.340Z,0.30
2022-12-03T09:31:35.826Z,0.20
2022-12-03T09:34:03.689Z,0.20
2022-12-03T09:36:30.442Z,0.20
2022-12-03T09:38:57.384Z,0.30
2022-12-03T09:41:25.189Z,0.30
2022-12-03T09:44:13.714Z,0.30
2022-12-03T09:46:41.356Z,0.30
2022-12-03T09:49:15.709Z,0.30
2022-12-03T09:51:45.030Z,0.40
2022-12-03T09:54:26.336Z,0.40
2022-12-03T09:56:54.919Z,0.50
2022-12-03T09:59:25.555Z,0.50
2022-12-03T10:01:53.792Z,0.50
2022-12-03T10:04:20.792Z,0.50
2022-12-03T10:06:48.027Z,0.50
2022-12-03T10:09:21.629Z,0.50
2022-12-03T10:11:48.388Z,0.50
2022-12-03T10:14:19.055Z,0.60
2022-12-03T10:16:46.495Z,0.70
2022-12-03T10:19:23.090Z,0.80
2022-12-03T10:21:50.207Z,0.80
2022-12-03T10:24:16.850Z,0.80
2022-12-03T10:26:45.219Z,0.80
2022-12-03T10:29:21.017Z,0.70
2022-12-03T10:32:00.914Z,0.70
2022-12-03T10:34:30.699Z,0.60
2022-12-03T10:37:16.935Z,0.70
2022-12-03T10:40:10.791Z,0.70
2022-12-03T10:42:39.696Z,0.70
2022-12-03T10:45:15.299Z,0.70
2022-12-03T10:47:43.757Z,0.70
2022-12-03T10:50:25.687Z,0.80
2022-12-03T10:52:52.459Z,0.80
2022-12-03T10:55:19.230Z,0.80
2022-12-03T10:57:46.978Z,0.70
2022-12-03T11:00:18.847Z,0.80
2022-12-03T11:02:50.383Z,0.70
2022-12-03T11:05:26.788Z,0.80
2022-12-03T11:07:53.934Z,0.70
2022-12-03T11:10:21.347Z,0.70
2022-12-03T11:13:25.557Z,0.70
2022-12-03T11:15:53.222Z,0.60
2022-12-03T11:18:38.278Z,0.60
2022-12-03T11:21:07.884Z,0.70
2022-12-03T11:23:46.800Z,0.70
2022-12-03T11:26:19.300Z,0.80
2022-12-03T11:28:46.505Z,0.80
2022-12-03T11:31:41.046Z,0.80
2022-12-03T11:34:16.608Z,0.80
2022-12-03T11:37:11.190Z,0.80
2022-12-03T11:39:55.519Z,0.70
2022-12-03T11:42:28.319Z,0.80
2022-12-03T11:45:03.980Z,0.80
2022-12-03T11:47:46.698Z,0.90
2022-12-03T11:50:22.219Z,0.90
2022-12-03T11:53:19.011Z,0.90
2022-12-03T11:55:52.019Z,0.80
2022-12-03T11:58:29.375Z,0.90
2022-12-03T12:01:01.381Z,0.90
2022-12-03T12:03:33.417Z,0.80
2022-12-03T12:06:15.471Z,0.80
2022-12-03T12:08:56.659Z,0.90
2022-12-03T12:11:36.050Z,0.80
2022-12-03T12:14:11.293Z,0.80
2022-12-03T12:16:42.651Z,0.90
2022-12-03T12:19:42.487Z,0.90
2022-12-03T12:22:27.352Z,0.90
2022-12-03T12:24:56.591Z,0.90
2022-12-03T12:27:39.158Z,0.80
2022-12-03T12:30:14.436Z,0.70
2022-12-03T12:32:48.948Z,0.70
2022-12-03T12:35:22.129Z,0.80
2022-12-03T12:37:59.794Z,0.80
2022-12-03T12:40:32.182Z,0.80
2022-12-03T12:43:14.422Z,0.70
2022-12-03T12:45:44.716Z,0.70
2022-12-03T12:48:29.146Z,0.70
2022-12-03T12:51:11.167Z,0.70
2022-12-03T12:53:40.072Z,0.70
2022-12-03T12:56:23.059Z,0.70
2022-12-03T12:58:50.066Z,0.70
2022-12-03T13:01:28.728Z,0.70
2022-12-03T13:03:55.801Z,0.60
2022-12-03T13:06:31.824Z,0.70
2022-12-03T13:09:01.067Z,0.60
2022-12-03T13:11:41.976Z,0.50
2022-12-03T13:14:22.135Z,0.60
2022-12-03T13:16:51.236Z,0.60
2022-12-03T13:19:26.665Z,0.60
2022-12-03T13:22:01.683Z,0.60
2022-12-03T13:24:47.569Z,0.60
2022-12-03T13:27:16.966Z,0.60
2022-12-03T13:29:45.344Z,0.60
2022-12-03T13:32:19.036Z,0.70
2022-12-03T13:34:46.635Z,0.70
2022-12-03T13:37:32.804Z,0.80
2022-12-03T13:40:32.850Z,0.60
2022-12-03T13:42:59.701Z,0.50
2022-12-03T13:45:35.599Z,0.60
2022-12-03T13:48:14.991Z,0.40
2022-12-03T13:50:46.737Z,0.40
2022-12-03T13:53:27.919Z,0.40
2022-12-03T13:56:03.748Z,0.40
2022-12-03T13:58:30.403Z,0.50
2022-12-03T14:00:57.077Z,0.40
2022-12-03T14:03:23.794Z,0.30
2022-12-03T14:05:50.484Z,0.40
2022-12-03T14:08:17.249Z,0.30
2022-12-03T14:10:44.010Z,0.40
2022-12-03T14:13:11.348Z,0.40
2022-12-03T14:15:38.048Z,0.40
2022-12-03T14:18:04.772Z,0.30
2022-12-03T14:20:32.027Z,0.30
2022-12-03T14:22:59.613Z,0.30
2022-12-03T14:25:26.963Z,0.40
2022-12-03T14:27:53.702Z,0.30
2022-12-03T14:30:20.431Z,0.30
2022-12-03T14:32:47.400Z,0.40
2022-12-03T14:35:14.287Z,0.30
2022-12-03T14:37:40.951Z,0.30
2022-12-03T14:40:08.974Z,0.30
2022-12-03T14:42:36.767Z,0.30
2022-12-03T14:45:03.779Z,0.20
2022-12-03T14:47:30.483Z,0.20
2022-12-03T14:49:57.339Z,0.20
2022-12-03T14:52:24.124Z,0.20
2022-12-03T14:54:50.755Z,0.20
2022-12-03T14:57:17.436Z,0.10
2022-12-03T14:59:44.993Z,0.10
2022-12-03T15:02:12.895Z,0.30
2022-12-03T15:04:40.856Z,0.30
2022-12-03T15:07:08.418Z,0.30
2022-12-03T15:09:35.157Z,0.20
2022-12-03T15:12:01.836Z,0.30
2022-12-03T15:14:28.469Z,0.30
2022-12-03T15:16:55.359Z,0.30
2022-12-03T15:19:22.076Z,0.30
2022-12-03T15:21:48.751Z,0.40
2022-12-03T15:24:15.366Z,0.40
2022-12-03T15:26:42.090Z,0.30
2022-12-03T15:29:08.817Z,0.20
2022-12-03T15:31:35.583Z,0.20
2022-12-03T15:34:02.336Z,0.20
2022-12-03T15:36:29.005Z,0.20
2022-12-03T15:38:56.705Z,0.20
2022-12-03T15:41:29.557Z,0.20
2022-12-03T15:43:58.683Z,0.20
2022-12-03T15:46:27.665Z,0.10
2022-12-03T15:48:55.783Z,0.10
2022-12-03T15:51:22.863Z,0.10
2022-12-03T15:53:49.648Z,0.00
2022-12-03T15:56:16.762Z,0.00
2022-12-03T15:58:43.619Z,0.00
2022-12-03T16:01:13.259Z,0.00
2022-12-03T16:03:40.707Z,0.10
2022-12-03T16:06:07.706Z,0.10
2022-12-03T16:08:34.352Z,0.10
2022-12-03T16:11:00.984Z,0.10
2022-12-03T16:13:27.632Z,0.10
2022-12-03T16:15:54.403Z,0.20
2022-12-03T16:18:21.079Z,0.20
2022-12-03T16:20:47.739Z,0.20
2022-12-03T16:23:14.387Z,0.20
2022-12-03T16:25:41.010Z,0.20
2022-12-03T16:28:07.681Z,0.20
2022-12-03T16:30:35.668Z,0.20
2022-12-03T16:33:02.483Z,0.10
2022-12-03T16:35:29.155Z,0.10
2022-12-03T16:37:55.817Z,0.10
2022-12-03T16:40:22.540Z,0.00
2022-12-03T16:42:49.185Z,0.00
2022-12-03T16:45:33.023Z,0.00
2022-12-03T16:48:01.013Z,0.10
2022-12-03T16:50:30.336Z,0.10
2022-12-03T16:52:57.607Z,0.10
2022-12-03T16:55:24.578Z,0.10
2022-12-03T16:57:51.222Z,0.20
2022-12-03T17:00:18.088Z,0.20
2022-12-03T17:02:44.828Z,0.00
2022-12-03T17:05:11.552Z,0.10
2022-12-03T17:07:38.274Z,0.00
2022-12-03T17:10:05.610Z,0.00
2022-12-03T17:13:00.716Z,0.00
2022-12-03T17:15:18.915Z,-0.10
2022-12-03T17:17:45.625Z,0.00
2022-12-03T17:20:14.514Z,0.00
2022-12-03T17:22:41.598Z,0.00
2022-12-03T17:25:09.222Z,0.00
2022-12-03T17:27:38.684Z,0.00
2022-12-03T17:30:10.994Z,0.00
2022-12-03T17:32:37.649Z,-0.10
2022-12-03T17:35:04.664Z,-0.10
2022-12-03T17:37:31.294Z,-0.10
2022-12-03T17:39:57.999Z,-0.20
2022-12-03T17:42:24.751Z,-0.20
2022-12-03T17:44:51.420Z,-0.10
2022-12-03T17:47:18.087Z,-0.10
2022-12-03T17:49:44.737Z,-0.10
2022-12-03T17:52:11.394Z,-0.10
2022-12-03T17:55:01.944Z,0.00
2022-12-03T17:57:24.883Z,-0.10
2022-12-03T17:59:51.993Z,-0.10
2022-12-03T18:02:19.006Z,-0.10
2022-12-03T18:04:45.680Z,-0.10
2022-12-03T18:07:12.336Z,-0.10
2022-12-03T18:09:39.020Z,-0.10
2022-12-03T18:12:05.981Z,-0.20
2022-12-03T18:14:32.607Z,-0.20
2022-12-03T18:16:59.246Z,-0.20
2022-12-03T18:19:25.968Z,-0.20
2022-12-03T18:21:53.344Z,-0.20
2022-12-03T18:24:20.040Z,-0.30
2022-12-03T18:26:46.910Z,-0.30
2022-12-03T18:29:13.542Z,-0.20
2022-12-03T18:31:40.331Z,-0.30
2022-12-03T18:34:07.076Z,-0.30
2022-12-03T18:36:36.022Z,-0.40
2022-12-03T18:39:05.053Z,-0.30
2022-12-03T18:41:33.208Z,-0.30
2022-12-03T18:44:02.316Z,-0.30
2022-12-03T18:46:52.280Z,-0.30
2022-12-03T18:49:15.575Z,-0.30
2022-12-03T18:51:42.258Z,-0.30
2022-12-03T18:54:13.398Z,-0.30
2022-12-03T18:56:41.399Z,-0.30
2022-12-03T18:59:08.337Z,-0.20
2022-12-03T19:01:35.691Z,-0.20
2022-12-03T19:04:02.548Z,-0.30
2022-12-03T19:06:30.381Z,-0.30
2022-12-03T19:08:57.117Z,-0.30
2022-12-03T19:11:23.860Z,-0.30
2022-12-03T19:13:51.140Z,-0.30
2022-12-03T19:16:17.893Z,-0.30
2022-12-03T19:18:44.979Z,-0.30
2022-12-03T19:21:14.387Z,-0.30
2022-12-03T19:23:42.805Z,-0.30
2022-12-03T19:26:15.020Z,-0.30
2022-12-03T19:28:41.800Z,-0.30
2022-12-03T19:31:16.552Z,-0.30
2022-12-03T19:33:44.182Z,-0.30
2022-12-03T19:36:25.659Z,-0.30
2022-12-03T19:38:57.421Z,-0.30
2022-12-03T19:41:30.689Z,-0.40
2022-12-03T19:43:58.327Z,-0.40
2022-12-03T19:46:29.125Z,-0.40
2022-12-03T19:48:55.789Z,-0.40
2022-12-03T19:51:37.750Z,-0.40
2022-12-03T19:54:06.566Z,-0.40
2022-12-03T19:56:33.895Z,-0.30
2022-12-03T19:59:00.611Z,-0.30
2022-12-03T20:01:30.159Z,-0.30
2022-12-03T20:03:58.794Z,-0.30
2022-12-03T20:06:28.135Z,-0.20
2022-12-03T20:09:03.704Z,-0.20
2022-12-03T20:11:32.587Z,-0.30
2022-12-03T20:14:02.238Z,-0.30
2022-12-03T20:16:30.160Z,-0.30
2022-12-03T20:19:00.059Z,-0.20
2022-12-03T20:21:28.544Z,-0.30
2022-12-03T20:23:55.257Z,-0.30
2022-12-03T20:26:22.516Z,-0.30
2022-12-03T20:28:49.787Z,-0.30
2022-12-03T20:31:20.064Z,-0.30
2022-12-03T20:33:49.176Z,-0.30
2022-12-03T20:36:23.255Z,-0.30
2022-12-03T20:38:55.067Z,-0.30
2022-12-03T20:41:22.174Z,-0.30
2022-12-03T20:43:49.508Z,-0.30
2022-12-03T20:46:19.595Z,-0.30
2022-12-03T20:48:46.768Z,-0.30
2022-12-03T20:51:16.990Z,-0.30
2022-12-03T20:53:44.203Z,-0.30
2022-12-03T20:56:11.702Z,-0.20
2022-12-03T20:58:38.334Z,-0.20
2022-12-03T21:01:25.852Z,-0.20
2022-12-03T21:03:54.095Z,-0.20
2022-12-03T21:06:22.128Z,-0.20
2022-12-03T21:08:49.131Z,-0.20
2022-12-03T21:11:18.794Z,-0.20
2022-12-03T21:13:46.411Z,-0.30
2022-12-03T21:16:18.876Z,-0.20
2022-12-03T21:18:46.051Z,-0.20
2022-12-03T21:21:15.080Z,-0.20
2022-12-03T21:23:42.607Z,-0.30
2022-12-03T21:26:13.243Z,-0.30
2022-12-03T21:28:43.211Z,-0.20
2022-12-03T21:31:13.902Z,-0.20
2022-12-03T21:33:40.841Z,-0.20
2022-12-03T21:36:10.549Z,-0.20
2022-12-03T21:38:37.956Z,-0.20
2022-12-03T21:41:05.178Z,-0.20
2022-12-03T21:43:32.476Z,-0.20
2022-12-03T21:45:59.533Z,-0.10
2022-12-03T21:48:26.502Z,-0.10
2022-12-03T21:51:02.780Z,-0.10
2022-12-03T21:53:32.034Z,-0.10
2022-12-03T21:55:59.603Z,-0.10
2022-12-03T21:58:26.559Z,0.00
2022-12-03T22:00:53.262Z,0.00
2022-12-03T22:03:20.014Z,0.10
2022-12-03T22:05:46.681Z,0.00
2022-12-03T22:08:13.821Z,0.00
2022-12-03T22:10:40.666Z,0.00
2022-12-03T22:13:07.351Z,0.00
2022-12-03T22:15:34.258Z,0.00
2022-12-03T22:18:00.953Z,0.00
2022-12-03T22:20:27.606Z,-0.10
2022-12-03T22:22:54.246Z,-0.10
2022-12-03T22:25:20.917Z,-0.10
2022-12-03T22:27:47.540Z,-0.10
2022-12-03T22:30:14.391Z,-0.10
2022-12-03T22:32:41.079Z,-0.10
2022-12-03T22:35:08.179Z,0.00
2022-12-03T22:37:35.157Z,-0.10
2022-12-03T22:40:01.874Z,0.00
2022-12-03T22:42:28.548Z,0.00
2022-12-03T22:44:55.207Z,0.00
2022-12-03T22:47:21.860Z,0.00
2022-12-03T22:49:48.523Z,0.00
2022-12-03T22:52:15.215Z,-0.10
2022-12-03T22:54:45.370Z,0.00
2022-12-03T22:57:12.201Z,0.00
2022-12-03T22:59:38.958Z,0.00
2022-12-03T23:02:05.598Z,0.00
2022-12-03T23:04:32.229Z,0.00
2022-12-03T23:06:58.851Z,-0.10
2022-12-03T23:09:25.605Z,-0.10
2022-12-03T23:11:52.262Z,-0.10
2022-12-03T23:14:18.913Z,-0.20
2022-12-03T23:16:45.711Z,-0.20
2022-12-03T23:19:12.763Z,-0.20
2022-12-03T23:21:39.532Z,-0.10
2022-12-03T23:24:06.561Z,-0.10
2022-12-03T23:26:37.855Z,-0.20
2022-12-03T23:29:05.995Z,-0.20
2022-12-03T23:31:33.618Z,-0.20
2022-12-03T23:34:00.882Z,-0.20
2022-12-03T23:36:29.731Z,-0.20
2022-12-03T23:38:57.312Z,-0.10
2022-12-03T23:41:24.499Z,-0.20
2022-12-03T23:43:51.521Z,-0.10
2022-12-03T23:46:21.988Z,-0.10
2022-12-03T23:48:49.354Z,0.00
2022-12-03T23:51:23.436Z,-0.10
2022-12-03T23:53:52.621Z,-0.10
2022-12-03T23:56:23.443Z,-0.10
2022-12-03T23:58:50.251Z,-0.20
